Time;durP1;ratioP1;P1;durP2;ratioP2;P2;SDS_P1;SDS_P2;PMS_P1;PMS_P2;Temp;Humidity;BMP_temperature;BMP_pressure;BME280_temperature;BME280_humidity;BME280_pressure;Samples;Min_cycle;Max_cycle;Signal;HPM_P1;HPM_P2
2022/04/13 00:02:03;;;;;;;12.02;8.50;;;5.10;99.90;;;;;;5036660;28;20025;-78
2022/04/13 00:04:29;;;;;;;8.43;7.00;;;5.10;99.90;;;;;;5054877;28;20068;-78
2022/04/13 00:06:55;;;;;;;8.70;6.63;;;5.10;99.90;;;;;;5053854;28;20052;-77
2022/04/13 00:09:20;;;;;;;9.85;7.57;;;5.10;99.90;;;;;;5035431;28;20029;-78
2022/04/13 00:11:46;;;;;;;10.70;7.63;;;5.00;99.90;;;;;;5034549;28;20029;-77
2022/04/13 00:14:12;;;;;;;7.90;6.32;;;5.00;99.90;;;;;;5053061;28;20513;-77
2022/04/13 00:16:42;;;;;;;9.63;7.03;;;5.00;99.90;;;;;;5053178;28;20079;-76
2022/04/13 00:19:08;;;;;;;8.57;7.68;;;4.90;99.90;;;;;;5053070;28;20021;-76
2022/04/13 00:21:33;;;;;;;8.30;7.15;;;4.90;99.90;;;;;;5053047;28;20429;-77
2022/04/13 00:23:59;;;;;;;10.88;7.40;;;4.90;99.90;;;;;;5053288;28;20021;-77
2022/04/13 00:26:25;;;;;;;10.32;7.35;;;4.90;99.90;;;;;;5052808;28;20026;-74
2022/04/13 00:28:51;;;;;;;7.88;6.47;;;4.90;99.90;;;;;;5034000;28;20037;-78
2022/04/13 00:31:16;;;;;;;10.60;6.80;;;4.90;99.90;;;;;;5034741;28;20041;-75
2022/04/13 00:33:42;;;;;;;8.73;7.03;;;4.90;99.90;;;;;;5052666;28;20040;-76
2022/04/13 00:36:08;;;;;;;10.02;7.57;;;4.90;99.90;;;;;;5052587;28;20028;-75
2022/04/13 00:38:34;;;;;;;9.13;7.32;;;4.90;99.90;;;;;;5034643;28;20032;-75
2022/04/13 00:40:59;;;;;;;8.23;6.70;;;4.90;99.90;;;;;;5052575;28;20081;-75
2022/04/13 00:43:25;;;;;;;8.63;7.45;;;4.90;99.90;;;;;;5051854;28;20028;-75
2022/04/13 00:45:52;;;;;;;8.88;7.32;;;4.90;99.90;;;;;;5034214;28;20040;-75
2022/04/13 00:48:36;;;;;;;12.10;7.22;;;4.90;99.90;;;;;;5051798;28;20106;-76
2022/04/13 00:51:03;;;;;;;9.77;7.85;;;4.90;99.90;;;;;;5052439;28;20044;-75
2022/04/13 00:53:31;;;;;;;9.52;6.53;;;4.90;99.90;;;;;;5052541;28;20021;-74
2022/04/13 00:55:58;;;;;;;;;;;4.90;99.90;;;;;;5052879;28;20124;-77
2022/04/13 00:58:28;;;;;;;8.13;6.32;;;4.90;99.90;;;;;;5052686;28;20321;-75
2022/04/13 01:00:55;;;;;;;7.65;5.95;;;4.90;99.90;;;;;;5052245;28;20056;-74
2022/04/13 01:03:24;;;;;;;8.45;6.35;;;4.90;99.90;;;;;;5034651;28;20247;-75
2022/04/13 01:05:51;;;;;;;9.88;7.80;;;4.80;99.90;;;;;;5051180;28;20115;-75
2022/04/13 01:08:17;;;;;;;8.32;6.53;;;4.80;99.90;;;;;;5052175;28;20063;-76
2022/04/13 01:10:45;;;;;;;8.77;6.95;;;4.90;99.90;;;;;;5052124;28;20033;-75
2022/04/13 01:13:12;;;;;;;8.50;7.18;;;4.80;99.90;;;;;;5052076;28;20021;-75
2022/04/13 01:15:38;;;;;;;10.50;6.90;;;4.80;99.90;;;;;;5052260;28;20025;-75
2022/04/13 01:18:04;;;;;;;8.52;6.53;;;4.80;99.90;;;;;;5051891;28;20400;-76
2022/04/13 01:20:30;;;;;;;7.88;5.60;;;4.80;99.90;;;;;;5051019;28;20028;-75
2022/04/13 01:22:56;;;;;;;6.90;5.22;;;4.70;99.90;;;;;;5051913;28;20017;-75
2022/04/13 01:25:22;;;;;;;8.70;6.60;;;4.70;99.90;;;;;;5051880;28;20382;-74
2022/04/13 01:27:48;;;;;;;8.65;6.68;;;4.70;99.90;;;;;;5051747;28;20017;-75
2022/04/13 01:30:14;;;;;;;7.78;6.00;;;4.70;99.90;;;;;;5051868;28;20398;-74
2022/04/13 01:32:40;;;;;;;8.80;6.35;;;4.70;99.90;;;;;;5033196;28;20017;-74
2022/04/13 01:35:07;;;;;;;8.02;6.55;;;4.70;99.90;;;;;;5051721;28;20112;-76
2022/04/13 01:37:34;;;;;;;9.50;6.18;;;4.70;99.90;;;;;;5050701;28;20025;-75
2022/04/13 01:40:00;;;;;;;8.55;6.53;;;4.70;99.90;;;;;;5051805;28;20096;-75
2022/04/13 01:42:26;;;;;;;7.70;6.53;;;4.70;99.90;;;;;;5051794;28;20124;-75
2022/04/13 01:44:51;;;;;;;11.30;7.07;;;4.70;99.90;;;;;;5051752;28;20478;-76
2022/04/13 01:47:17;;;;;;;7.40;5.88;;;4.70;99.90;;;;;;5052279;28;20025;-75
2022/04/13 01:49:43;;;;;;;8.10;6.00;;;4.70;99.90;;;;;;5051717;28;20085;-74
2022/04/13 01:52:10;;;;;;;8.45;6.13;;;4.60;99.90;;;;;;5051748;28;20027;-74
2022/04/13 01:54:36;;;;;;;7.85;6.63;;;4.60;99.90;;;;;;5050373;28;20044;-76
2022/04/13 01:57:03;;;;;;;6.68;5.80;;;4.60;99.90;;;;;;5051869;28;20394;-76
2022/04/13 01:59:29;;;;;;;9.05;7.28;;;4.60;99.90;;;;;;5051499;28;20021;-76
2022/04/13 02:01:55;;;;;;;6.50;5.80;;;4.60;99.90;;;;;;5033768;28;20155;-74
2022/04/13 02:04:25;;;;;;;8.75;5.90;;;4.70;99.90;;;;;;5051603;28;20108;-75
2022/04/13 02:06:51;;;;;;;8.27;6.53;;;4.60;99.90;;;;;;5051609;28;20139;-76
2022/04/13 02:09:18;;;;;;;7.25;6.50;;;4.60;99.90;;;;;;5050564;28;20390;-74
2022/04/13 02:11:45;;;;;;;6.75;6.05;;;4.50;99.90;;;;;;5051500;28;20395;-76
2022/04/13 02:14:11;;;;;;;6.88;5.70;;;4.60;99.90;;;;;;5051429;28;20520;-75
2022/04/13 02:16:38;;;;;;;10.63;5.90;;;4.60;99.90;;;;;;5051241;28;20075;-76
2022/04/13 02:19:04;;;;;;;8.77;6.77;;;4.60;99.90;;;;;;5051475;28;20031;-77
2022/04/13 02:21:30;;;;;;;9.23;7.18;;;4.60;99.90;;;;;;5051503;28;20020;-76
2022/04/13 02:23:57;;;;;;;7.97;6.97;;;4.60;99.90;;;;;;5051328;28;20029;-76
2022/04/13 02:26:24;;;;;;;6.78;6.05;;;4.60;99.90;;;;;;5048629;28;20387;-77
2022/04/13 02:28:50;;;;;;;7.67;5.43;;;4.60;99.90;;;;;;5051321;28;20496;-76
2022/04/13 02:31:16;;;;;;;8.30;5.80;;;4.60;99.90;;;;;;5051254;28;20297;-77
2022/04/13 02:33:41;;;;;;;7.85;5.50;;;4.60;99.90;;;;;;5051117;28;20499;-76
2022/04/13 02:36:07;;;;;;;7.97;6.28;;;4.60;99.90;;;;;;5033354;28;20060;-76
2022/04/13 02:38:33;;;;;;;8.02;6.32;;;4.60;99.90;;;;;;5051163;28;20028;-76
2022/04/13 02:40:59;;;;;;;8.02;6.32;;;4.60;99.90;;;;;;5051273;28;20021;-77
2022/04/13 02:43:28;;;;;;;7.05;5.78;;;4.60;99.90;;;;;;5050139;28;20035;-75
2022/04/13 02:45:57;;;;;;;8.80;6.82;;;4.60;99.90;;;;;;5052988;28;20113;-77
2022/04/13 02:48:23;;;;;;;8.45;6.32;;;4.60;99.90;;;;;;5054923;28;20059;-77
2022/04/13 02:50:49;;;;;;;10.15;6.50;;;4.60;99.90;;;;;;5036595;28;20406;-76
2022/04/13 02:53:15;;;;;;;9.07;7.57;;;4.70;99.90;;;;;;5056087;28;20021;-77
2022/04/13 02:55:42;;;;;;;8.40;6.72;;;4.70;99.90;;;;;;5055094;28;20447;-78
2022/04/13 02:58:08;;;;;;;6.95;5.43;;;4.70;99.90;;;;;;5036609;28;20081;-77
2022/04/13 03:00:34;;;;;;;7.57;5.32;;;4.70;99.90;;;;;;5055730;28;20367;-78
2022/04/13 03:03:00;;;;;;;10.10;7.38;;;4.70;99.90;;;;;;5054722;28;20469;-76
2022/04/13 03:05:26;;;;;;;8.63;7.65;;;4.70;99.90;;;;;;5036718;28;20042;-77
2022/04/13 03:07:55;;;;;;;11.35;8.60;;;4.70;99.90;;;;;;5054563;28;20028;-78
2022/04/13 03:10:21;;;;;;;10.70;8.20;;;4.70;99.90;;;;;;5054455;28;20485;-76
2022/04/13 03:12:46;;;;;;;10.07;7.38;;;4.70;99.90;;;;;;5054405;28;20079;-76
2022/04/13 03:15:12;;;;;;;11.15;9.20;;;4.80;99.90;;;;;;5053196;28;20064;-77
2022/04/13 03:17:38;;;;;;;9.50;7.68;;;4.80;99.90;;;;;;5036109;28;20100;-78
2022/04/13 03:20:05;;;;;;;8.43;7.47;;;4.90;99.90;;;;;;5036248;28;20087;-75
2022/04/13 03:22:32;;;;;;;8.55;6.47;;;4.80;99.90;;;;;;5054193;28;20025;-79
2022/04/13 03:25:01;;;;;;;9.18;6.13;;;4.80;99.90;;;;;;5054104;28;20021;-77
2022/04/13 03:27:27;;;;;;;9.40;6.82;;;4.70;99.90;;;;;;5054078;28;20040;-75
2022/04/13 03:29:52;;;;;;;9.55;6.70;;;4.70;99.90;;;;;;5053225;28;20070;-77
2022/04/13 03:32:18;;;;;;;7.88;5.47;;;4.70;99.90;;;;;;5054085;28;20413;-75
2022/04/13 03:34:44;;;;;;;10.10;7.68;;;4.80;99.90;;;;;;5035917;28;20068;-75
2022/04/13 03:37:10;;;;;;;7.45;6.43;;;4.80;99.90;;;;;;5054128;28;20032;-76
2022/04/13 03:39:36;;;;;;;8.15;6.20;;;4.80;99.90;;;;;;5053965;28;20859;-77
2022/04/13 03:42:02;;;;;;;7.88;6.03;;;4.90;99.90;;;;;;5053816;28;20354;-76
2022/04/13 03:44:29;;;;;;;8.35;5.45;;;4.90;99.90;;;;;;5053682;28;20025;-75
2022/04/13 03:46:54;;;;;;;5.60;4.72;;;5.00;99.90;;;;;;5052549;28;20033;-76
2022/04/13 03:49:20;;;;;;;6.05;4.63;;;5.00;99.90;;;;;;5053735;28;20021;-75
2022/04/13 03:51:47;;;;;;;7.10;5.20;;;4.90;99.90;;;;;;5053394;28;20041;-75
2022/04/13 03:54:13;;;;;;;7.35;5.63;;;4.90;99.90;;;;;;5053423;28;20599;-76
2022/04/13 03:56:38;;;;;;;10.52;5.13;;;4.90;99.90;;;;;;5052987;28;20056;-76
2022/04/13 03:59:07;;;;;;;7.55;6.28;;;4.80;99.90;;;;;;5053539;28;20110;-75
2022/04/13 04:01:33;;;;;;;8.70;6.53;;;4.90;99.90;;;;;;5053495;28;20211;-74
2022/04/13 04:03:59;;;;;;;7.45;5.22;;;4.90;99.90;;;;;;5052384;28;20112;-77
2022/04/13 04:06:25;;;;;;;8.98;6.07;;;4.90;99.90;;;;;;5053231;28;20024;-75
2022/04/13 04:08:51;;;;;;;13.27;5.55;;;4.90;99.90;;;;;;5035224;28;20107;-76
2022/04/13 04:11:17;;;;;;;7.30;5.05;;;4.80;99.90;;;;;;5035244;28;20033;-75
2022/04/13 04:13:43;;;;;;;7.88;5.43;;;4.80;99.90;;;;;;5052956;28;20021;-75
2022/04/13 04:16:09;;;;;;;8.98;5.82;;;4.80;99.90;;;;;;5035106;28;20021;-76
2022/04/13 04:18:35;;;;;;;10.15;6.30;;;4.80;99.90;;;;;;5053088;28;20483;-74
2022/04/13 04:21:00;;;;;;;12.98;6.40;;;4.90;99.90;;;;;;5034142;28;20862;-76
2022/04/13 04:23:26;;;;;;;6.90;5.35;;;5.00;99.90;;;;;;5034927;28;20549;-75
2022/04/13 04:25:53;;;;;;;8.10;5.68;;;5.00;99.90;;;;;;5053205;28;20079;-75
2022/04/13 04:28:19;;;;;;;6.82;5.15;;;4.90;99.90;;;;;;5037102;28;20049;-76
2022/04/13 04:30:45;;;;;;;9.52;5.95;;;4.90;99.90;;;;;;5032986;28;20072;-75
2022/04/13 04:33:15;;;;;;;7.45;5.55;;;5.00;99.90;;;;;;5032773;28;20045;-76
2022/04/13 04:35:46;;;;;;;7.28;5.10;;;4.90;99.90;;;;;;5032776;28;20025;-76
2022/04/13 04:38:12;;;;;;;7.00;5.05;;;5.00;99.90;;;;;;5052782;28;20029;-77
2022/04/13 04:40:37;;;;;;;18.60;7.43;;;5.10;99.90;;;;;;5052628;28;20032;-77
2022/04/13 04:43:03;;;;;;;8.52;6.60;;;5.10;99.90;;;;;;5052587;28;20063;-76
2022/04/13 04:45:29;;;;;;;10.07;7.10;;;5.20;99.90;;;;;;5052193;28;20496;-76
2022/04/13 04:48:04;;;;;;;9.45;6.32;;;5.30;99.90;;;;;;5052351;28;20075;-74
2022/04/13 04:50:30;;;;;;;9.90;6.55;;;5.40;99.90;;;;;;5052421;28;20521;-77
2022/04/13 04:52:56;;;;;;;9.48;7.13;;;5.40;99.90;;;;;;5051278;28;20028;-75
2022/04/13 04:55:22;;;;;;;9.35;6.70;;;5.40;99.90;;;;;;5034373;28;20029;-77
2022/04/13 04:57:48;;;;;;;9.73;6.32;;;5.30;99.70;;;;;;5052092;28;20055;-74
2022/04/13 05:00:19;;;;;;;9.60;7.00;;;5.20;99.80;;;;;;5053100;28;20029;-75
2022/04/13 05:02:53;;;;;;;8.23;6.45;;;5.20;99.90;;;;;;5030203;28;20025;-76
2022/04/13 05:05:19;;;;;;;8.80;6.38;;;5.30;99.90;;;;;;5052538;28;20056;-76
2022/04/13 05:07:46;;;;;;;10.18;6.32;;;5.30;99.90;;;;;;5051230;28;20097;-76
2022/04/13 05:10:12;;;;;;;8.88;7.47;;;5.30;99.90;;;;;;5051307;28;20128;-77
2022/04/13 05:12:48;;;;;;;10.32;7.45;;;5.30;99.90;;;;;;5052092;28;20488;-76
2022/04/13 05:15:14;;;;;;;10.38;7.85;;;5.30;99.90;;;;;;5052200;28;20029;-76
2022/04/13 05:17:41;;;;;;;13.35;7.82;;;5.40;99.80;;;;;;5051944;28;20033;-76
2022/04/13 05:20:08;;;;;;;10.80;8.23;;;5.30;99.70;;;;;;5051572;28;20063;-75
2022/04/13 05:22:34;;;;;;;11.35;7.97;;;5.30;99.60;;;;;;5051688;28;20459;-77
2022/04/13 05:25:11;;;;;;;15.05;8.88;;;5.30;99.50;;;;;;5051923;28;20027;-76
2022/04/13 05:27:38;;;;;;;15.70;9.15;;;5.30;99.70;;;;;;5051974;28;20029;-76
2022/04/13 05:30:05;;;;;;;10.27;8.23;;;5.40;99.70;;;;;;5033232;28;20045;-76
2022/04/13 05:32:32;;;;;;;11.20;8.07;;;5.40;99.40;;;;;;5051761;28;20021;-77
2022/04/13 05:35:02;;;;;;;11.57;7.75;;;5.40;99.50;;;;;;5051843;28;20033;-76
2022/04/13 05:37:28;;;;;;;16.42;10.00;;;5.40;99.50;;;;;;5041737;28;20360;-77
2022/04/13 05:39:54;;;;;;;11.32;8.43;;;5.40;99.50;;;;;;5048924;28;20053;-76
2022/04/13 05:42:24;;;;;;;14.98;9.70;;;5.50;99.30;;;;;;5050860;28;20057;-77
2022/04/13 05:44:51;;;;;;;17.73;9.70;;;5.50;99.20;;;;;;5051425;28;20025;-76
2022/04/13 05:47:17;;;;;;;16.03;9.97;;;5.50;99.30;;;;;;5051653;28;20116;-76
2022/04/13 05:49:44;;;;;;;13.63;9.10;;;5.60;99.30;;;;;;5033471;28;20281;-77
2022/04/13 05:52:09;;;;;;;15.55;9.40;;;5.70;99.20;;;;;;5051671;28;20036;-76
2022/04/13 05:54:35;;;;;;;16.85;9.65;;;5.70;99.00;;;;;;5033565;28;20482;-77
2022/04/13 05:57:02;;;;;;;11.52;8.52;;;5.90;99.00;;;;;;5051497;28;20040;-77
2022/04/13 05:59:29;;;;;;;13.55;8.93;;;6.00;98.60;;;;;;5050478;28;20017;-76
2022/04/13 06:01:54;;;;;;;15.57;9.07;;;6.00;98.40;;;;;;5051340;28;20413;-76
2022/04/13 06:04:21;;;;;;;14.38;8.57;;;6.10;98.00;;;;;;5051567;28;20083;-77
2022/04/13 06:06:47;;;;;;;14.23;8.88;;;6.10;97.80;;;;;;5051133;28;20032;-77
2022/04/13 06:09:12;;;;;;;11.50;9.07;;;6.10;97.60;;;;;;5052205;28;20071;-77
2022/04/13 06:11:39;;;;;;;15.38;8.82;;;6.00;97.60;;;;;;5052025;28;20044;-77
2022/04/13 06:14:12;;;;;;;14.68;8.75;;;6.00;97.40;;;;;;5051012;28;20029;-78
2022/04/13 06:16:38;;;;;;;15.75;9.35;;;5.90;97.60;;;;;;5051719;28;20454;-78
2022/04/13 06:19:04;;;;;;;15.25;10.20;;;5.90;97.70;;;;;;5051735;28;20048;-76
2022/04/13 06:21:29;;;;;;;16.63;12.38;;;5.90;97.50;;;;;;5054499;28;20107;-76
2022/04/13 06:23:58;;;;;;;15.90;9.85;;;6.00;97.50;;;;;;5055063;28;20116;-77
2022/04/13 06:26:24;;;;;;;16.33;10.50;;;6.00;97.50;;;;;;5055314;28;20024;-77
2022/04/13 06:28:49;;;;;;;13.48;9.65;;;6.00;97.20;;;;;;5037241;28;20025;-76
2022/04/13 06:31:15;;;;;;;19.42;10.90;;;6.00;97.20;;;;;;5053349;28;20124;-76
2022/04/13 06:33:41;;;;;;;13.70;8.57;;;6.00;97.30;;;;;;5054612;28;20073;-78
2022/04/13 06:36:08;;;;;;;12.20;8.95;;;6.10;97.30;;;;;;5054606;28;20044;-78
2022/04/13 06:38:34;;;;;;;11.60;8.63;;;6.10;97.30;;;;;;5054713;28;20025;-76
2022/04/13 06:41:00;;;;;;;13.05;8.45;;;6.10;97.00;;;;;;5054374;28;20097;-76
2022/04/13 06:43:26;;;;;;;10.15;6.80;;;6.10;96.90;;;;;;5051863;28;20025;-77
2022/04/13 06:45:54;;;;;;;11.43;7.65;;;6.10;97.00;;;;;;5053899;28;20017;-76
2022/04/13 06:48:21;;;;;;;10.35;7.43;;;6.10;96.90;;;;;;5053155;28;20017;-75
2022/04/13 06:50:47;;;;;;;13.00;8.10;;;6.10;96.70;;;;;;5037906;28;20036;-76
2022/04/13 06:53:14;;;;;;;12.25;7.50;;;6.10;96.70;;;;;;5074450;28;20028;-78
2022/04/13 06:55:40;;;;;;;13.07;8.27;;;6.10;96.80;;;;;;5075079;28;20021;-78
2022/04/13 06:58:07;;;;;;;12.48;7.85;;;6.10;96.90;;;;;;5074952;28;20029;-79
2022/04/13 07:00:34;;;;;;;13.10;8.82;;;6.10;96.80;;;;;;5075735;28;20067;-78
2022/04/13 07:03:00;;;;;;;10.13;7.93;;;6.10;96.80;;;;;;5075454;28;20017;-75
2022/04/13 07:05:26;;;;;;;11.30;8.27;;;6.20;96.60;;;;;;5066347;28;20032;-77
2022/04/13 07:07:54;;;;;;;14.48;9.05;;;6.20;96.60;;;;;;5054249;28;20025;-77
2022/04/13 07:10:20;;;;;;;12.90;8.52;;;6.10;96.70;;;;;;5053886;28;20033;-78
2022/04/13 07:12:45;;;;;;;11.38;8.95;;;6.10;96.60;;;;;;5053915;28;20090;-78
2022/04/13 07:15:12;;;;;;;12.63;8.30;;;6.10;96.50;;;;;;5036160;28;20029;-77
2022/04/13 07:17:38;;;;;;;11.77;9.13;;;6.10;96.50;;;;;;5054161;28;20028;-78
2022/04/13 07:20:05;;;;;;;16.55;8.05;;;6.10;96.50;;;;;;5054058;28;20025;-78
2022/04/13 07:22:30;;;;;;;9.68;7.80;;;6.20;96.70;;;;;;5053144;28;20427;-77
2022/04/13 07:24:56;;;;;;;17.58;8.70;;;6.20;96.30;;;;;;5036117;28;20215;-76
2022/04/13 07:27:22;;;;;;;10.80;7.88;;;6.20;96.40;;;;;;5035963;28;20060;-78
2022/04/13 07:29:48;;;;;;;10.95;7.15;;;6.30;96.40;;;;;;5054023;28;20025;-77
2022/04/13 07:32:13;;;;;;;11.75;7.68;;;6.30;96.30;;;;;;5053158;28;20497;-77
2022/04/13 07:34:39;;;;;;;14.05;8.52;;;6.30;96.10;;;;;;5035723;28;20494;-77
2022/04/13 07:37:05;;;;;;;11.30;7.82;;;6.30;96.10;;;;;;5053740;28;20367;-77
2022/04/13 07:39:31;;;;;;;13.20;8.85;;;6.40;96.20;;;;;;5052633;28;20486;-77
2022/04/13 07:41:57;;;;;;;16.02;9.13;;;6.40;96.00;;;;;;5053359;28;20025;-77
2022/04/13 07:44:23;;;;;;;15.43;9.57;;;6.40;96.10;;;;;;5053789;28;20063;-78
2022/04/13 07:46:48;;;;;;;12.15;8.27;;;6.50;96.00;;;;;;5053525;28;20021;-76
2022/04/13 07:49:14;;;;;;;17.80;9.02;;;6.60;96.10;;;;;;5053598;28;20100;-81
2022/04/13 07:51:40;;;;;;;10.15;7.60;;;6.80;95.90;;;;;;5035430;28;20033;-79
2022/04/13 07:54:07;;;;;;;14.50;8.80;;;6.90;95.50;;;;;;5052494;28;20122;-77
2022/04/13 07:56:32;;;;;;;12.75;8.90;;;7.00;95.30;;;;;;5053303;28;20029;-78
2022/04/13 07:58:58;;;;;;;15.07;8.68;;;7.10;95.00;;;;;;5053007;28;20081;-79
2022/04/13 08:01:24;;;;;;;15.63;9.57;;;7.10;95.00;;;;;;5053416;28;20017;-75
2022/04/13 08:03:50;;;;;;;15.77;8.75;;;7.30;95.00;;;;;;5035400;28;20024;-78
2022/04/13 08:06:16;;;;;;;21.65;10.50;;;7.30;94.70;;;;;;5053351;28;20045;-77
2022/04/13 08:08:42;;;;;;;12.80;9.77;;;7.40;94.70;;;;;;5052219;28;20071;-77
2022/04/13 08:11:08;;;;;;;16.98;8.88;;;7.50;94.00;;;;;;5053060;28;20032;-78
2022/04/13 08:13:34;;;;;;;18.85;11.07;;;7.40;93.90;;;;;;5052952;28;20017;-77
2022/04/13 08:16:00;;;;;;;11.75;8.90;;;7.20;94.10;;;;;;5053139;28;20021;-78
2022/04/13 08:18:26;;;;;;;21.20;9.73;;;7.10;94.40;;;;;;5052923;28;20033;-77
2022/04/13 08:20:52;;;;;;;16.50;9.45;;;7.10;94.60;;;;;;5052877;28;20040;-77
2022/04/13 08:23:18;;;;;;;16.80;10.18;;;7.10;94.60;;;;;;5053158;28;20098;-79
2022/04/13 08:25:45;;;;;;;16.15;10.77;;;7.10;94.50;;;;;;5052386;28;20029;-81
2022/04/13 08:28:10;;;;;;;20.42;11.48;;;7.00;94.90;;;;;;5052992;28;20378;-79
2022/04/13 08:30:37;;;;;;;12.55;9.65;;;7.20;94.90;;;;;;5052503;28;20055;-79
2022/04/13 08:33:03;;;;;;;16.50;11.07;;;7.30;94.60;;;;;;5052561;28;20041;-77
2022/04/13 08:35:29;;;;;;;14.38;9.90;;;7.40;94.50;;;;;;5052832;28;20083;-77
2022/04/13 08:37:54;;;;;;;15.07;10.30;;;7.40;94.10;;;;;;5052445;28;20413;-77
2022/04/13 08:40:21;;;;;;;20.33;9.50;;;7.50;94.00;;;;;;5051119;28;20021;-79
2022/04/13 08:43:09;;;;;;;13.80;8.53;;;7.50;94.10;;;;;;5034411;28;20075;-77
2022/04/13 08:45:42;;;;;;;16.10;10.65;;;7.30;94.00;;;;;;5052460;28;20031;-80
2022/04/13 08:48:11;;;;;;;17.45;9.95;;;7.30;94.30;;;;;;5052594;28;20063;-78
2022/04/13 08:50:38;;;;;;;13.30;9.13;;;7.40;94.30;;;;;;5034447;28;20047;-79
2022/04/13 08:53:09;;;;;;;15.52;9.93;;;7.50;94.10;;;;;;5052605;28;20017;-79
2022/04/13 08:55:37;;;;;;;23.05;12.60;;;7.40;93.90;;;;;;5052251;28;20060;-78
2022/04/13 08:58:23;;;;;;;17.45;11.20;;;7.20;94.30;;;;;;5051056;28;20066;-78
2022/04/13 09:00:54;;;;;;;16.07;10.17;;;7.30;94.50;;;;;;5051734;28;20028;-78
2022/04/13 09:03:28;;;;;;;18.67;11.27;;;7.30;94.50;;;;;;5052007;28;20028;-78
2022/04/13 09:05:57;;;;;;;17.75;11.73;;;7.30;94.50;;;;;;5051551;28;20021;-78
2022/04/13 09:08:53;;;;;;;15.68;10.60;;;7.20;94.50;;;;;;5051614;28;20028;-76
2022/04/13 09:11:21;;;;;;;18.00;9.27;;;7.20;94.60;;;;;;5046519;28;20041;-77
2022/04/13 09:13:49;;;;;;;23.88;11.35;;;7.20;94.30;;;;;;5052141;28;20044;-79
2022/04/13 09:16:15;;;;;;;14.52;9.52;;;7.00;94.70;;;;;;5052610;28;20454;-76
2022/04/13 09:18:45;;;;;;;21.27;11.25;;;7.00;95.10;;;;;;5055965;28;20052;-79
2022/04/13 09:21:20;;;;;;;18.42;11.18;;;7.10;95.20;;;;;;5058733;28;20025;-78
2022/04/13 09:23:46;;;;;;;18.00;10.90;;;7.10;95.10;;;;;;5051741;28;20025;-77
2022/04/13 09:26:14;;;;;;;18.40;11.40;;;7.00;95.00;;;;;;5051761;28;20024;-78
2022/04/13 09:28:41;;;;;;;16.83;10.65;;;6.80;95.00;;;;;;5051608;28;20056;-78
2022/04/13 09:31:07;;;;;;;17.65;9.98;;;6.80;95.40;;;;;;5051273;28;20498;-77
2022/04/13 09:33:33;;;;;;;18.20;12.27;;;6.80;95.60;;;;;;5051012;28;20129;-78
2022/04/13 09:35:59;;;;;;;20.38;11.90;;;6.80;95.70;;;;;;5051571;28;20048;-78
2022/04/13 09:38:27;;;;;;;22.02;10.85;;;6.90;95.50;;;;;;5051750;28;20075;-77
2022/04/13 09:40:53;;;;;;;15.73;12.40;;;7.00;95.40;;;;;;5033613;28;20499;-78
2022/04/13 09:43:22;;;;;;;19.45;9.77;;;6.80;95.00;;;;;;5051639;28;20025;-75
2022/04/13 09:45:50;;;;;;;15.75;8.93;;;6.80;95.50;;;;;;5051982;28;20382;-77
2022/04/13 09:48:16;;;;;;;;;;;6.80;95.50;;;;;;5051676;28;20017;-76
2022/04/13 09:50:44;;;;;;;16.50;9.50;;;6.70;95.60;;;;;;5033942;28;19916;-77
2022/04/13 09:53:11;;;;;;;17.17;10.27;;;6.80;95.90;;;;;;5052297;28;20013;-78
2022/04/13 09:55:39;;;;;;;17.40;10.68;;;6.80;96.00;;;;;;5037295;28;20442;-78
2022/04/13 09:58:06;;;;;;;19.38;11.52;;;7.00;96.00;;;;;;5038361;28;20109;-79
2022/04/13 10:00:34;;;;;;;17.03;10.43;;;7.10;95.60;;;;;;5038033;28;20036;-77
2022/04/13 10:03:20;;;;;;;17.40;11.43;;;7.20;95.10;;;;;;5055369;28;20257;-79
2022/04/13 10:05:50;;;;;;;16.75;10.60;;;7.10;95.10;;;;;;5033372;28;20506;-79
2022/04/13 10:08:23;;;;;;;14.23;9.55;;;7.00;95.00;;;;;;5055451;28;20043;-79
2022/04/13 10:10:51;;;;;;;19.98;11.43;;;6.80;95.30;;;;;;5055113;28;20489;-79
2022/04/13 10:13:35;;;;;;;;;;;6.80;95.50;;;;;;5056027;28;20025;-78
2022/04/13 10:16:05;;;;;;;18.10;11.23;;;6.80;95.50;;;;;;5055445;28;20328;-78
2022/04/13 10:18:57;;;;;;;18.38;10.52;;;6.80;95.70;;;;;;5055319;28;20029;-78
2022/04/13 10:21:45;;;;;;;16.42;11.05;;;7.00;95.80;;;;;;5055149;28;20096;-79
2022/04/13 10:24:24;;;;;;;14.50;10.48;;;7.10;95.40;;;;;;5054391;28;20425;-78
2022/04/13 10:27:09;;;;;;;19.67;11.70;;;7.10;95.30;;;;;;5055711;28;20021;-78
2022/04/13 10:29:37;;;;;;;16.08;9.40;;;7.10;95.10;;;;;;5055921;28;20036;-78
2022/04/13 10:32:08;;;;;;;18.23;10.68;;;7.10;95.10;;;;;;5055771;28;20494;-79
2022/04/13 10:34:43;;;;;;;15.15;9.48;;;7.20;95.20;;;;;;5055044;28;20391;-79
2022/04/13 10:37:11;;;;;;;16.25;10.43;;;7.20;95.00;;;;;;5053600;28;20025;-77
2022/04/13 10:39:38;;;;;;;17.33;11.35;;;7.30;95.10;;;;;;5054795;28;20029;-77
2022/04/13 10:42:06;;;;;;;16.92;10.75;;;7.50;94.80;;;;;;5054720;28;20027;-77
2022/04/13 10:44:38;;;;;;;15.00;10.88;;;7.60;94.50;;;;;;5054845;28;20021;-78
2022/04/13 10:47:10;;;;;;;17.85;11.27;;;7.70;94.20;;;;;;5054628;28;20036;-78
2022/04/13 10:49:57;;;;;;;14.68;9.00;;;7.70;94.00;;;;;;5054325;28;20021;-79
2022/04/13 10:52:32;;;;;;;20.73;12.88;;;7.60;94.10;;;;;;5054883;28;20033;-78
2022/04/13 10:55:04;;;;;;;18.73;12.43;;;7.40;94.30;;;;;;5036223;28;20119;-76
2022/04/13 10:57:36;;;;;;;17.88;10.77;;;7.20;94.90;;;;;;5054487;28;20455;-80
2022/04/13 11:00:05;;;;;;;19.35;12.68;;;7.10;95.30;;;;;;5036518;28;20021;-78
2022/04/13 11:02:54;;;;;;;22.58;12.15;;;7.10;95.20;;;;;;5036794;28;20852;-77
2022/04/13 11:05:25;;;;;;;25.83;14.43;;;7.30;95.30;;;;;;5041619;28;20390;-77
2022/04/13 11:08:12;;;;;;;18.83;13.15;;;7.40;95.20;;;;;;5053705;28;20443;-78
2022/04/13 11:10:38;;;;;;;18.50;12.10;;;7.50;94.90;;;;;;5052956;28;20052;-79
2022/04/13 11:13:04;;;;;;;14.05;10.65;;;7.50;94.70;;;;;;5054362;28;20032;-76
2022/04/13 11:15:50;;;;;;;13.85;10.45;;;7.40;94.70;;;;;;5054325;28;20095;-79
2022/04/13 11:18:20;;;;;;;24.00;11.48;;;7.40;94.60;;;;;;5054277;28;20048;-76
2022/04/13 11:21:08;;;;;;;17.33;11.93;;;7.40;94.70;;;;;;5054209;28;20022;-77
2022/04/13 11:23:48;;;;;;;20.80;10.27;;;7.40;94.50;;;;;;5054340;28;20021;-78
2022/04/13 11:26:14;;;;;;;19.23;11.73;;;7.30;94.50;;;;;;5053086;28;20025;-77
2022/04/13 11:28:40;;;;;;;15.75;11.98;;;7.20;94.70;;;;;;5053803;28;20021;-78
2022/04/13 11:31:13;;;;;;;19.60;12.55;;;7.10;95.00;;;;;;5035938;28;20075;-78
2022/04/13 11:33:49;;;;;;;18.70;10.30;;;7.00;95.20;;;;;;5053257;28;20041;-77
2022/04/13 11:36:15;;;;;;;16.15;11.23;;;6.90;95.20;;;;;;5035737;28;20474;-76
2022/04/13 11:38:49;;;;;;;16.55;10.93;;;6.90;95.30;;;;;;5052459;28;20098;-76
2022/04/13 11:41:15;;;;;;;12.75;9.70;;;6.90;95.60;;;;;;5053626;28;20025;-76
2022/04/13 11:43:41;;;;;;;17.85;11.80;;;6.90;95.50;;;;;;5053539;28;20075;-78
2022/04/13 11:46:09;;;;;;;14.63;8.23;;;6.90;95.30;;;;;;5035289;28;20033;-78
2022/04/13 11:48:36;;;;;;;10.95;8.20;;;6.90;95.30;;;;;;5053523;28;20013;-77
2022/04/13 11:51:23;;;;;;;14.07;10.13;;;6.80;95.40;;;;;;5053494;28;20040;-77
2022/04/13 11:54:05;;;;;;;16.35;9.70;;;6.80;95.50;;;;;;5053215;28;20044;-78
2022/04/13 11:56:38;;;;;;;16.35;9.88;;;6.70;95.70;;;;;;5052251;28;20092;-75
2022/04/13 11:59:05;;;;;;;13.77;8.43;;;6.70;95.80;;;;;;5053676;28;20374;-78
2022/04/13 12:01:33;;;;;;;13.15;8.75;;;6.90;95.80;;;;;;5035627;28;20039;-78
2022/04/13 12:04:02;;;;;;;11.07;7.95;;;6.80;95.70;;;;;;5035545;28;20484;-78
2022/04/13 12:06:29;;;;;;;12.07;9.40;;;6.80;95.70;;;;;;5053164;28;20061;-76
2022/04/13 12:08:57;;;;;;;12.05;8.30;;;6.70;95.80;;;;;;5053678;28;20104;-77
2022/04/13 12:11:25;;;;;;;;;;;6.80;95.80;;;;;;5053313;28;20045;-77
2022/04/13 12:14:00;;;;;;;15.15;8.18;;;6.80;95.90;;;;;;5053810;28;19970;-79
2022/04/13 12:16:32;;;;;;;11.13;7.32;;;6.70;95.70;;;;;;5053219;28;20340;-78
2022/04/13 12:19:08;;;;;;;13.60;7.82;;;6.70;95.90;;;;;;5034330;28;20048;-78
2022/04/13 12:21:36;;;;;;;6.90;5.30;;;6.80;95.90;;;;;;5053975;28;20079;-79
2022/04/13 12:24:09;;;;;;;7.40;5.53;;;6.80;95.80;;;;;;5053202;28;20024;-78
2022/04/13 12:26:38;;;;;;;5.70;4.05;;;6.80;95.50;;;;;;5052792;28;20029;-77
2022/04/13 12:29:22;;;;;;;5.63;3.95;;;6.80;95.40;;;;;;5051721;28;20029;-79
2022/04/13 12:31:55;;;;;;;7.90;4.40;;;6.80;95.30;;;;;;5052820;28;20032;-78
2022/04/13 12:34:22;;;;;;;5.70;3.80;;;6.80;95.30;;;;;;5052530;28;20041;-77
2022/04/13 12:36:55;;;;;;;11.80;3.42;;;6.80;95.60;;;;;;5052776;28;20079;-78
2022/04/13 12:39:29;;;;;;;7.30;3.92;;;6.90;95.20;;;;;;5052467;28;20385;-77
2022/04/13 12:41:56;;;;;;;5.72;4.07;;;6.90;95.00;;;;;;5052744;28;20025;-77
2022/04/13 12:44:28;;;;;;;11.70;3.33;;;6.90;95.10;;;;;;5051697;28;20031;-79
2022/04/13 12:47:04;;;;;;;6.55;2.60;;;7.00;94.80;;;;;;5032542;28;20061;-76
2022/04/13 12:49:31;;;;;;;5.68;2.75;;;7.00;94.40;;;;;;5032869;28;20036;-78
2022/04/13 12:51:57;;;;;;;3.53;2.58;;;7.00;94.30;;;;;;5051101;28;20033;-82
2022/04/13 12:54:24;;;;;;;6.00;2.60;;;7.10;94.20;;;;;;5052381;28;20025;-77
2022/04/13 12:56:51;;;;;;;3.30;2.28;;;7.10;94.00;;;;;;5052435;28;20078;-76